This is the latest recevied weather packets stored in our database for station/object N7IGG. If no packets are shown the sender has not sent any weather packets the latest 10 day(s).
| Time | Temp. | Humidity | Pressure | Rain* | Wind** | Luminosity | Snow |
|---|---|---|---|---|---|---|---|
| 1777831250 | 19.44° C | 65% | 1013.9 hPa | 0 mm | - | 50 W/m² | - |
| 1777830947 | 18.33° C | 70% | 1014 hPa | 0 mm | - | 51 W/m² | - |
| 1777830645 | 17.78° C | 72% | 1013.9 hPa | 0 mm | - | 51 W/m² | - |
| 1777830342 | 17.22° C | 76% | 1014 hPa | 0 mm | - | 50 W/m² | - |
| 1777830038 | 16.67° C | 77% | 1014.1 hPa | 0 mm | - | 51 W/m² | - |
| 1777829733 | 16.11° C | 78% | 1014.1 hPa | 0 mm | - | 77 W/m² | - |
| 1777829429 | 16.11° C | 77% | 1014 hPa | 0 mm | - | 48 W/m² | - |
| 1777829127 | 16.11° C | 77% | 1014.2 hPa | 0 mm | - | 46 W/m² | - |
| 1777828824 | 16.11° C | 77% | 1014 hPa | 0 mm | - | 385 W/m² | - |
| 1777828521 | 16.11° C | 76% | 1014 hPa | 0 mm | - | 93 W/m² | - |
| 1777828218 | 16.11° C | 77% | 1014.1 hPa | 0 mm | - | 91 W/m² | - |
| 1777827914 | 16.67° C | 76% | 1014.1 hPa | 0 mm | - | 50 W/m² | - |
| 1777827612 | 16.11° C | 76% | 1014.2 hPa | 0 mm | - | 69 W/m² | - |
| 1777827309 | 16.11° C | 76% | 1014.2 hPa | 0 mm | - | 135 W/m² | - |
| 1777827005 | 16.67° C | 76% | 1014 hPa | 0 mm | - | 48 W/m² | - |
| 1777826702 | 16.11° C | 77% | 1014.3 hPa | 0 mm | - | 157 W/m² | - |
| 1777826399 | 15.56° C | 77% | 1014.2 hPa | 0 mm | - | 53 W/m² | - |
| 1777826096 | 16.11° C | 77% | 1014.2 hPa | 0 mm | - | 133 W/m² | - |
| 1777825793 | 16.11° C | 77% | 1014.1 hPa | 0 mm | - | 45 W/m² | - |
| 1777825490 | 15.56° C | 77% | 1014.2 hPa | 0 mm | - | 83 W/m² | - |
| 1777825187 | 15.56° C | 76% | 1014.5 hPa | 0 mm | - | 43 W/m² | - |
| 1777824884 | 16.11° C | 74% | 1014.3 hPa | 0 mm | - | 42 W/m² | - |
| 1777824580 | 16.67° C | 74% | 1014.3 hPa | 0 mm | - | 43 W/m² | - |
| 1777824278 | 16.67° C | 75% | 1014.4 hPa | 0 mm | - | 40 W/m² | - |
| 1777823973 | 16.67° C | 77% | 1014.5 hPa | 0 mm | - | 40 W/m² | - |
* Rain latest hour (hover to see other rain measurements)
** Current wind speed in m/s (hover to see current wind gust speed)